sensor_id;sensor_type;location;lat;lon;timestamp;temperature;humidity
26378;DHT22;14078;50.974;6.786;2023-07-31T00:00:45;16.80;99.90
26378;DHT22;14078;50.974;6.786;2023-07-31T00:03:11;16.90;99.90
26378;DHT22;14078;50.974;6.786;2023-07-31T00:05:38;16.90;99.90
26378;DHT22;14078;50.974;6.786;2023-07-31T00:08:04;16.90;99.90
26378;DHT22;14078;50.974;6.786;2023-07-31T00:10:31;16.90;99.90
26378;DHT22;14078;50.974;6.786;2023-07-31T00:12:58;17.00;99.90
26378;DHT22;14078;50.974;6.786;2023-07-31T00:15:26;17.00;99.90
26378;DHT22;14078;50.974;6.786;2023-07-31T00:17:53;17.00;99.90
26378;DHT22;14078;50.974;6.786;2023-07-31T00:20:20;16.90;99.90
26378;DHT22;14078;50.974;6.786;2023-07-31T00:22:47;16.90;99.90
26378;DHT22;14078;50.974;6.786;2023-07-31T00:25:14;16.90;99.90
26378;DHT22;14078;50.974;6.786;2023-07-31T00:27:40;16.90;99.90
26378;DHT22;14078;50.974;6.786;2023-07-31T00:30:10;16.90;99.90
26378;DHT22;14078;50.974;6.786;2023-07-31T00:32:38;16.90;99.90
26378;DHT22;14078;50.974;6.786;2023-07-31T00:35:04;16.90;99.90
26378;DHT22;14078;50.974;6.786;2023-07-31T00:37:31;16.90;99.90
26378;DHT22;14078;50.974;6.786;2023-07-31T00:39:57;17.00;99.90
26378;DHT22;14078;50.974;6.786;2023-07-31T00:42:24;16.90;99.90
26378;DHT22;14078;50.974;6.786;2023-07-31T00:44:51;16.90;99.90
26378;DHT22;14078;50.974;6.786;2023-07-31T00:47:17;17.00;99.90
26378;DHT22;14078;50.974;6.786;2023-07-31T00:49:45;17.00;99.90
26378;DHT22;14078;50.974;6.786;2023-07-31T00:52:11;17.10;99.90
26378;DHT22;14078;50.974;6.786;2023-07-31T00:54:38;17.10;99.90
26378;DHT22;14078;50.974;6.786;2023-07-31T00:57:05;17.00;99.90
26378;DHT22;14078;50.974;6.786;2023-07-31T00:59:33;17.00;99.90
26378;DHT22;14078;50.974;6.786;2023-07-31T01:01:59;17.00;99.90
26378;DHT22;14078;50.974;6.786;2023-07-31T01:04:26;17.20;99.90
26378;DHT22;14078;50.974;6.786;2023-07-31T01:06:55;17.20;99.90
26378;DHT22;14078;50.974;6.786;2023-07-31T01:09:28;17.20;99.90
26378;DHT22;14078;50.974;6.786;2023-07-31T01:11:56;17.20;99.90
26378;DHT22;14078;50.974;6.786;2023-07-31T01:14:25;17.20;99.90
26378;DHT22;14078;50.974;6.786;2023-07-31T01:16:51;17.10;99.90
26378;DHT22;14078;50.974;6.786;2023-07-31T01:19:18;17.10;99.90
26378;DHT22;14078;50.974;6.786;2023-07-31T01:21:53;17.10;99.90
26378;DHT22;14078;50.974;6.786;2023-07-31T01:24:27;17.20;99.90
26378;DHT22;14078;50.974;6.786;2023-07-31T01:26:57;17.30;99.90
26378;DHT22;14078;50.974;6.786;2023-07-31T01:29:26;17.20;99.90
26378;DHT22;14078;50.974;6.786;2023-07-31T01:31:56;17.20;99.90
26378;DHT22;14078;50.974;6.786;2023-07-31T01:34:23;17.20;99.90
26378;DHT22;14078;50.974;6.786;2023-07-31T01:36:49;17.30;99.90
26378;DHT22;14078;50.974;6.786;2023-07-31T01:39:16;17.20;99.90
26378;DHT22;14078;50.974;6.786;2023-07-31T01:41:42;17.20;99.90
26378;DHT22;14078;50.974;6.786;2023-07-31T01:44:10;17.30;99.90
26378;DHT22;14078;50.974;6.786;2023-07-31T01:46:37;17.30;99.90
26378;DHT22;14078;50.974;6.786;2023-07-31T01:49:03;17.20;99.90
26378;DHT22;14078;50.974;6.786;2023-07-31T01:51:31;17.30;99.90
26378;DHT22;14078;50.974;6.786;2023-07-31T01:53:59;17.30;99.90
26378;DHT22;14078;50.974;6.786;2023-07-31T01:56:25;17.20;99.90
26378;DHT22;14078;50.974;6.786;2023-07-31T01:58:52;17.20;99.90
26378;DHT22;14078;50.974;6.786;2023-07-31T02:01:20;17.30;99.90
26378;DHT22;14078;50.974;6.786;2023-07-31T02:03:46;17.30;99.90
26378;DHT22;14078;50.974;6.786;2023-07-31T02:06:13;17.40;99.90
26378;DHT22;14078;50.974;6.786;2023-07-31T02:08:39;17.40;99.90
26378;DHT22;14078;50.974;6.786;2023-07-31T02:11:06;17.40;99.90
26378;DHT22;14078;50.974;6.786;2023-07-31T02:13:32;17.40;99.90
26378;DHT22;14078;50.974;6.786;2023-07-31T02:15:59;17.40;99.90
26378;DHT22;14078;50.974;6.786;2023-07-31T02:18:27;17.40;99.90
26378;DHT22;14078;50.974;6.786;2023-07-31T02:20:54;17.40;99.90
26378;DHT22;14078;50.974;6.786;2023-07-31T02:23:21;17.40;99.90
26378;DHT22;14078;50.974;6.786;2023-07-31T02:25:47;17.30;99.90
26378;DHT22;14078;50.974;6.786;2023-07-31T02:28:14;17.30;99.90
26378;DHT22;14078;50.974;6.786;2023-07-31T02:30:43;17.30;99.90
26378;DHT22;14078;50.974;6.786;2023-07-31T02:33:10;17.40;99.90
26378;DHT22;14078;50.974;6.786;2023-07-31T02:35:38;17.40;99.90
26378;DHT22;14078;50.974;6.786;2023-07-31T02:38:04;17.50;99.90
26378;DHT22;14078;50.974;6.786;2023-07-31T02:40:31;17.40;99.90
26378;DHT22;14078;50.974;6.786;2023-07-31T02:42:57;17.40;99.90
26378;DHT22;14078;50.974;6.786;2023-07-31T02:45:24;17.40;99.90
26378;DHT22;14078;50.974;6.786;2023-07-31T02:47:50;17.40;99.90
26378;DHT22;14078;50.974;6.786;2023-07-31T02:50:17;17.30;99.90
26378;DHT22;14078;50.974;6.786;2023-07-31T02:52:44;17.40;99.90
26378;DHT22;14078;50.974;6.786;2023-07-31T02:55:11;17.40;99.90
26378;DHT22;14078;50.974;6.786;2023-07-31T02:57:37;17.30;99.90
26378;DHT22;14078;50.974;6.786;2023-07-31T03:00:05;17.40;99.90
26378;DHT22;14078;50.974;6.786;2023-07-31T03:02:32;17.50;99.90
26378;DHT22;14078;50.974;6.786;2023-07-31T03:04:58;17.50;99.90
26378;DHT22;14078;50.974;6.786;2023-07-31T03:07:25;17.40;99.90
26378;DHT22;14078;50.974;6.786;2023-07-31T03:09:52;17.50;99.90
26378;DHT22;14078;50.974;6.786;2023-07-31T03:12:19;17.60;99.90
26378;DHT22;14078;50.974;6.786;2023-07-31T03:14:46;17.60;99.90
26378;DHT22;14078;50.974;6.786;2023-07-31T03:17:12;17.60;99.90
26378;DHT22;14078;50.974;6.786;2023-07-31T03:19:39;17.50;99.90
26378;DHT22;14078;50.974;6.786;2023-07-31T03:22:05;17.60;99.90
26378;DHT22;14078;50.974;6.786;2023-07-31T03:24:32;17.60;99.90
26378;DHT22;14078;50.974;6.786;2023-07-31T03:26:59;17.50;99.90
26378;DHT22;14078;50.974;6.786;2023-07-31T03:29:26;17.50;99.90
26378;DHT22;14078;50.974;6.786;2023-07-31T03:31:52;17.60;99.90
26378;DHT22;14078;50.974;6.786;2023-07-31T03:34:19;17.60;99.90
26378;DHT22;14078;50.974;6.786;2023-07-31T03:36:45;17.50;99.90
26378;DHT22;14078;50.974;6.786;2023-07-31T03:39:12;17.50;99.90
26378;DHT22;14078;50.974;6.786;2023-07-31T03:41:38;17.50;99.90
26378;DHT22;14078;50.974;6.786;2023-07-31T03:44:06;17.50;99.90
26378;DHT22;14078;50.974;6.786;2023-07-31T03:46:33;17.50;99.90
26378;DHT22;14078;50.974;6.786;2023-07-31T03:49:01;17.50;99.90
26378;DHT22;14078;50.974;6.786;2023-07-31T03:51:27;17.50;99.90
26378;DHT22;14078;50.974;6.786;2023-07-31T03:53:54;17.50;99.90
26378;DHT22;14078;50.974;6.786;2023-07-31T03:56:20;17.40;99.90
26378;DHT22;14078;50.974;6.786;2023-07-31T03:58:47;17.40;99.90
26378;DHT22;14078;50.974;6.786;2023-07-31T04:01:15;17.40;99.90
26378;DHT22;14078;50.974;6.786;2023-07-31T04:03:43;17.50;99.90
26378;DHT22;14078;50.974;6.786;2023-07-31T04:06:09;17.50;99.90
26378;DHT22;14078;50.974;6.786;2023-07-31T04:08:36;17.50;99.90
26378;DHT22;14078;50.974;6.786;2023-07-31T04:11:02;17.50;99.90
26378;DHT22;14078;50.974;6.786;2023-07-31T04:13:29;17.50;99.90
26378;DHT22;14078;50.974;6.786;2023-07-31T04:15:55;17.40;99.90
26378;DHT22;14078;50.974;6.786;2023-07-31T04:18:24;17.50;99.90
26378;DHT22;14078;50.974;6.786;2023-07-31T04:20:50;17.40;99.90
26378;DHT22;14078;50.974;6.786;2023-07-31T04:23:17;17.30;99.90
26378;DHT22;14078;50.974;6.786;2023-07-31T04:25:43;17.30;99.90
26378;DHT22;14078;50.974;6.786;2023-07-31T04:28:10;17.30;99.90
26378;DHT22;14078;50.974;6.786;2023-07-31T04:30:36;17.40;99.90
26378;DHT22;14078;50.974;6.786;2023-07-31T04:33:03;17.40;99.90
26378;DHT22;14078;50.974;6.786;2023-07-31T04:35:30;17.50;99.90
26378;DHT22;14078;50.974;6.786;2023-07-31T04:37:57;17.50;99.90
26378;DHT22;14078;50.974;6.786;2023-07-31T04:40:24;17.60;99.90
26378;DHT22;14078;50.974;6.786;2023-07-31T04:42:50;17.60;99.90
26378;DHT22;14078;50.974;6.786;2023-07-31T04:45:17;17.60;99.90
26378;DHT22;14078;50.974;6.786;2023-07-31T04:47:43;17.60;99.90
26378;DHT22;14078;50.974;6.786;2023-07-31T04:50:10;17.60;99.90
26378;DHT22;14078;50.974;6.786;2023-07-31T04:52:38;17.50;99.90
26378;DHT22;14078;50.974;6.786;2023-07-31T04:55:04;17.70;99.90
26378;DHT22;14078;50.974;6.786;2023-07-31T04:57:31;17.80;99.90
26378;DHT22;14078;50.974;6.786;2023-07-31T04:59:58;17.70;99.90
26378;DHT22;14078;50.974;6.786;2023-07-31T05:02:24;17.70;99.90
26378;DHT22;14078;50.974;6.786;2023-07-31T05:04:50;17.80;99.90
26378;DHT22;14078;50.974;6.786;2023-07-31T05:07:17;17.90;99.90
26378;DHT22;14078;50.974;6.786;2023-07-31T05:09:45;17.90;99.90
26378;DHT22;14078;50.974;6.786;2023-07-31T05:12:11;17.90;99.90
26378;DHT22;14078;50.974;6.786;2023-07-31T05:14:38;18.00;99.90
26378;DHT22;14078;50.974;6.786;2023-07-31T05:17:05;17.90;99.90
26378;DHT22;14078;50.974;6.786;2023-07-31T05:19:32;18.00;99.90
26378;DHT22;14078;50.974;6.786;2023-07-31T05:21:58;18.00;99.90
26378;DHT22;14078;50.974;6.786;2023-07-31T05:24:25;18.10;99.90
26378;DHT22;14078;50.974;6.786;2023-07-31T05:26:52;18.10;99.90
26378;DHT22;14078;50.974;6.786;2023-07-31T05:29:19;18.10;99.90
26378;DHT22;14078;50.974;6.786;2023-07-31T05:31:46;18.00;99.90
26378;DHT22;14078;50.974;6.786;2023-07-31T05:34:12;18.10;99.90
26378;DHT22;14078;50.974;6.786;2023-07-31T05:36:39;18.00;99.90
26378;DHT22;14078;50.974;6.786;2023-07-31T05:39:05;18.10;99.90
26378;DHT22;14078;50.974;6.786;2023-07-31T05:41:33;18.10;99.90
26378;DHT22;14078;50.974;6.786;2023-07-31T05:44:01;18.10;99.90
26378;DHT22;14078;50.974;6.786;2023-07-31T05:46:28;18.10;99.90
26378;DHT22;14078;50.974;6.786;2023-07-31T05:48:54;18.10;99.90
26378;DHT22;14078;50.974;6.786;2023-07-31T05:51:21;18.00;99.90
26378;DHT22;14078;50.974;6.786;2023-07-31T05:53:47;18.10;99.90
26378;DHT22;14078;50.974;6.786;2023-07-31T05:56:14;18.10;99.90
26378;DHT22;14078;50.974;6.786;2023-07-31T05:58:40;18.10;99.90
26378;DHT22;14078;50.974;6.786;2023-07-31T06:01:08;18.10;99.90
26378;DHT22;14078;50.974;6.786;2023-07-31T06:03:35;18.00;99.90
26378;DHT22;14078;50.974;6.786;2023-07-31T06:06:01;17.90;99.90
26378;DHT22;14078;50.974;6.786;2023-07-31T06:08:28;17.90;99.90
26378;DHT22;14078;50.974;6.786;2023-07-31T06:10:54;17.80;99.90
26378;DHT22;14078;50.974;6.786;2023-07-31T06:13:21;17.70;99.90
26378;DHT22;14078;50.974;6.786;2023-07-31T06:15:47;17.60;99.90
26378;DHT22;14078;50.974;6.786;2023-07-31T06:18:15;17.50;99.90
26378;DHT22;14078;50.974;6.786;2023-07-31T06:20:41;17.40;99.90
26378;DHT22;14078;50.974;6.786;2023-07-31T06:23:08;17.40;99.90
26378;DHT22;14078;50.974;6.786;2023-07-31T06:25:35;17.40;99.90
26378;DHT22;14078;50.974;6.786;2023-07-31T06:28:01;17.30;99.90
26378;DHT22;14078;50.974;6.786;2023-07-31T06:30:28;17.30;99.90
26378;DHT22;14078;50.974;6.786;2023-07-31T06:32:54;17.30;99.90
26378;DHT22;14078;50.974;6.786;2023-07-31T06:35:22;17.40;99.90
26378;DHT22;14078;50.974;6.786;2023-07-31T06:37:49;17.40;99.90
26378;DHT22;14078;50.974;6.786;2023-07-31T06:40:16;17.40;99.90
26378;DHT22;14078;50.974;6.786;2023-07-31T06:42:43;17.50;99.90
26378;DHT22;14078;50.974;6.786;2023-07-31T06:45:10;17.50;99.90
26378;DHT22;14078;50.974;6.786;2023-07-31T06:47:36;17.60;99.90
26378;DHT22;14078;50.974;6.786;2023-07-31T06:50:03;17.70;99.90
26378;DHT22;14078;50.974;6.786;2023-07-31T06:52:31;17.70;99.90
26378;DHT22;14078;50.974;6.786;2023-07-31T06:55:01;17.80;99.90
26378;DHT22;14078;50.974;6.786;2023-07-31T06:57:29;17.90;99.90
26378;DHT22;14078;50.974;6.786;2023-07-31T06:59:55;17.90;99.90
26378;DHT22;14078;50.974;6.786;2023-07-31T07:02:22;18.00;99.90
26378;DHT22;14078;50.974;6.786;2023-07-31T07:04:49;18.00;99.90
26378;DHT22;14078;50.974;6.786;2023-07-31T07:07:15;18.00;99.90
26378;DHT22;14078;50.974;6.786;2023-07-31T07:09:43;18.10;99.90
26378;DHT22;14078;50.974;6.786;2023-07-31T07:12:10;18.00;99.90
26378;DHT22;14078;50.974;6.786;2023-07-31T07:14:36;18.10;99.90
26378;DHT22;14078;50.974;6.786;2023-07-31T07:17:03;18.10;99.90
26378;DHT22;14078;50.974;6.786;2023-07-31T07:19:29;18.10;99.90
26378;DHT22;14078;50.974;6.786;2023-07-31T07:21:56;18.10;99.90
26378;DHT22;14078;50.974;6.786;2023-07-31T07:24:22;18.10;99.90
26378;DHT22;14078;50.974;6.786;2023-07-31T07:26:50;18.20;99.90
26378;DHT22;14078;50.974;6.786;2023-07-31T07:29:17;18.10;99.90
26378;DHT22;14078;50.974;6.786;2023-07-31T07:31:43;18.10;99.90
26378;DHT22;14078;50.974;6.786;2023-07-31T07:34:10;18.00;99.90
26378;DHT22;14078;50.974;6.786;2023-07-31T07:36:36;17.90;99.90
26378;DHT22;14078;50.974;6.786;2023-07-31T07:39:03;17.90;99.90
26378;DHT22;14078;50.974;6.786;2023-07-31T07:41:29;17.80;99.90
26378;DHT22;14078;50.974;6.786;2023-07-31T07:43:57;17.80;99.90
26378;DHT22;14078;50.974;6.786;2023-07-31T07:46:24;17.80;99.90
26378;DHT22;14078;50.974;6.786;2023-07-31T07:48:50;17.80;99.90
26378;DHT22;14078;50.974;6.786;2023-07-31T07:51:17;17.70;99.90
26378;DHT22;14078;50.974;6.786;2023-07-31T07:53:43;17.70;99.90
26378;DHT22;14078;50.974;6.786;2023-07-31T07:56:10;17.70;99.90
26378;DHT22;14078;50.974;6.786;2023-07-31T07:58:36;17.60;99.90
26378;DHT22;14078;50.974;6.786;2023-07-31T08:01:04;17.60;99.90
26378;DHT22;14078;50.974;6.786;2023-07-31T08:03:31;17.50;99.90
26378;DHT22;14078;50.974;6.786;2023-07-31T08:05:57;17.50;99.90
26378;DHT22;14078;50.974;6.786;2023-07-31T08:08:24;17.50;99.90
26378;DHT22;14078;50.974;6.786;2023-07-31T08:10:50;17.50;99.90
26378;DHT22;14078;50.974;6.786;2023-07-31T08:13:17;17.50;99.90
26378;DHT22;14078;50.974;6.786;2023-07-31T08:15:43;17.50;99.90
26378;DHT22;14078;50.974;6.786;2023-07-31T08:18:11;17.50;99.90
26378;DHT22;14078;50.974;6.786;2023-07-31T08:20:38;17.60;99.90
26378;DHT22;14078;50.974;6.786;2023-07-31T08:23:04;17.60;99.90
26378;DHT22;14078;50.974;6.786;2023-07-31T08:25:33;17.70;99.90
26378;DHT22;14078;50.974;6.786;2023-07-31T08:28:00;17.70;99.90
26378;DHT22;14078;50.974;6.786;2023-07-31T08:30:27;17.70;99.90
26378;DHT22;14078;50.974;6.786;2023-07-31T08:32:53;17.70;99.90
26378;DHT22;14078;50.974;6.786;2023-07-31T08:35:21;17.80;99.90
26378;DHT22;14078;50.974;6.786;2023-07-31T08:37:48;17.80;99.90
26378;DHT22;14078;50.974;6.786;2023-07-31T08:40:14;17.90;99.90
26378;DHT22;14078;50.974;6.786;2023-07-31T08:42:44;17.90;99.90
26378;DHT22;14078;50.974;6.786;2023-07-31T08:45:13;17.90;99.90
26378;DHT22;14078;50.974;6.786;2023-07-31T08:47:40;18.00;99.90
26378;DHT22;14078;50.974;6.786;2023-07-31T08:50:07;18.10;99.90
26378;DHT22;14078;50.974;6.786;2023-07-31T08:52:35;18.10;99.90
26378;DHT22;14078;50.974;6.786;2023-07-31T08:55:01;18.20;99.90
26378;DHT22;14078;50.974;6.786;2023-07-31T08:57:28;18.30;99.90
26378;DHT22;14078;50.974;6.786;2023-07-31T08:59:55;18.30;99.90
26378;DHT22;14078;50.974;6.786;2023-07-31T09:02:23;18.30;99.90
26378;DHT22;14078;50.974;6.786;2023-07-31T09:04:51;18.30;99.90
26378;DHT22;14078;50.974;6.786;2023-07-31T09:07:17;18.30;99.90
26378;DHT22;14078;50.974;6.786;2023-07-31T09:09:45;18.20;99.90
26378;DHT22;14078;50.974;6.786;2023-07-31T09:12:12;18.10;99.90
26378;DHT22;14078;50.974;6.786;2023-07-31T09:14:38;18.20;99.90
26378;DHT22;14078;50.974;6.786;2023-07-31T09:17:06;18.30;99.90
26378;DHT22;14078;50.974;6.786;2023-07-31T09:19:33;18.20;99.90
26378;DHT22;14078;50.974;6.786;2023-07-31T09:22:02;18.20;99.90
26378;DHT22;14078;50.974;6.786;2023-07-31T09:24:29;18.30;99.90
26378;DHT22;14078;50.974;6.786;2023-07-31T09:26:57;18.40;99.90
26378;DHT22;14078;50.974;6.786;2023-07-31T09:29:25;18.50;99.90
26378;DHT22;14078;50.974;6.786;2023-07-31T09:31:52;18.70;99.90
26378;DHT22;14078;50.974;6.786;2023-07-31T09:34:19;18.90;99.90
26378;DHT22;14078;50.974;6.786;2023-07-31T09:36:46;19.10;99.90
26378;DHT22;14078;50.974;6.786;2023-07-31T09:39:13;19.30;99.90
26378;DHT22;14078;50.974;6.786;2023-07-31T09:41:42;19.40;99.90
26378;DHT22;14078;50.974;6.786;2023-07-31T09:44:10;19.50;99.90
26378;DHT22;14078;50.974;6.786;2023-07-31T09:46:37;19.50;99.90
26378;DHT22;14078;50.974;6.786;2023-07-31T09:49:04;19.50;99.90
26378;DHT22;14078;50.974;6.786;2023-07-31T09:51:31;19.50;99.90
26378;DHT22;14078;50.974;6.786;2023-07-31T09:54:03;19.40;99.90
26378;DHT22;14078;50.974;6.786;2023-07-31T09:56:30;19.50;99.90
26378;DHT22;14078;50.974;6.786;2023-07-31T09:58:58;19.50;99.90
26378;DHT22;14078;50.974;6.786;2023-07-31T10:01:26;19.50;99.90
26378;DHT22;14078;50.974;6.786;2023-07-31T10:03:53;19.70;99.90
26378;DHT22;14078;50.974;6.786;2023-07-31T10:06:19;19.70;99.90
26378;DHT22;14078;50.974;6.786;2023-07-31T10:08:48;19.80;99.90
26378;DHT22;14078;50.974;6.786;2023-07-31T10:11:16;19.90;99.90
26378;DHT22;14078;50.974;6.786;2023-07-31T10:13:43;19.90;99.90
26378;DHT22;14078;50.974;6.786;2023-07-31T10:16:10;19.80;99.90
26378;DHT22;14078;50.974;6.786;2023-07-31T10:18:38;19.80;99.90
26378;DHT22;14078;50.974;6.786;2023-07-31T10:21:04;19.90;99.90
26378;DHT22;14078;50.974;6.786;2023-07-31T10:23:31;19.80;99.90
26378;DHT22;14078;50.974;6.786;2023-07-31T10:25:58;19.90;99.90
26378;DHT22;14078;50.974;6.786;2023-07-31T10:28:25;19.80;99.90
26378;DHT22;14078;50.974;6.786;2023-07-31T10:30:53;19.90;99.90
26378;DHT22;14078;50.974;6.786;2023-07-31T10:33:20;19.80;99.90
26378;DHT22;14078;50.974;6.786;2023-07-31T10:35:48;19.80;99.90
26378;DHT22;14078;50.974;6.786;2023-07-31T10:38:16;19.70;99.90
26378;DHT22;14078;50.974;6.786;2023-07-31T10:40:43;19.70;99.90
26378;DHT22;14078;50.974;6.786;2023-07-31T10:43:13;19.60;99.90
26378;DHT22;14078;50.974;6.786;2023-07-31T10:45:49;19.60;99.90
26378;DHT22;14078;50.974;6.786;2023-07-31T10:48:16;19.60;99.90
26378;DHT22;14078;50.974;6.786;2023-07-31T10:50:46;19.60;99.90
26378;DHT22;14078;50.974;6.786;2023-07-31T10:53:23;19.70;99.90
26378;DHT22;14078;50.974;6.786;2023-07-31T10:55:49;19.70;99.90
26378;DHT22;14078;50.974;6.786;2023-07-31T10:58:18;19.50;99.90
26378;DHT22;14078;50.974;6.786;2023-07-31T11:00:44;19.20;99.90
26378;DHT22;14078;50.974;6.786;2023-07-31T11:03:12;19.10;99.90
26378;DHT22;14078;50.974;6.786;2023-07-31T11:05:49;19.20;99.90
26378;DHT22;14078;50.974;6.786;2023-07-31T11:08:19;19.30;99.90
26378;DHT22;14078;50.974;6.786;2023-07-31T11:10:48;19.50;99.90
26378;DHT22;14078;50.974;6.786;2023-07-31T11:13:15;19.60;99.90
26378;DHT22;14078;50.974;6.786;2023-07-31T11:15:41;19.80;99.90
26378;DHT22;14078;50.974;6.786;2023-07-31T11:18:08;20.00;99.90
26378;DHT22;14078;50.974;6.786;2023-07-31T11:20:36;20.10;99.90
26378;DHT22;14078;50.974;6.786;2023-07-31T11:23:03;20.20;99.90
26378;DHT22;14078;50.974;6.786;2023-07-31T11:25:30;20.40;99.90
26378;DHT22;14078;50.974;6.786;2023-07-31T11:28:01;20.50;99.90
26378;DHT22;14078;50.974;6.786;2023-07-31T11:30:28;20.70;99.90
26378;DHT22;14078;50.974;6.786;2023-07-31T11:32:54;20.90;99.90
26378;DHT22;14078;50.974;6.786;2023-07-31T11:35:21;20.80;99.90
26378;DHT22;14078;50.974;6.786;2023-07-31T11:37:48;20.90;99.90
26378;DHT22;14078;50.974;6.786;2023-07-31T11:40:16;21.00;99.90
26378;DHT22;14078;50.974;6.786;2023-07-31T11:42:42;21.10;99.90
26378;DHT22;14078;50.974;6.786;2023-07-31T11:45:13;21.10;99.90
26378;DHT22;14078;50.974;6.786;2023-07-31T11:47:39;21.10;99.90
26378;DHT22;14078;50.974;6.786;2023-07-31T11:50:07;21.10;99.90
26378;DHT22;14078;50.974;6.786;2023-07-31T11:52:36;21.20;99.90
26378;DHT22;14078;50.974;6.786;2023-07-31T11:55:04;21.20;99.90
26378;DHT22;14078;50.974;6.786;2023-07-31T11:57:31;21.10;99.90
26378;DHT22;14078;50.974;6.786;2023-07-31T11:59:58;20.90;99.90
26378;DHT22;14078;50.974;6.786;2023-07-31T12:02:26;20.80;99.90
26378;DHT22;14078;50.974;6.786;2023-07-31T12:04:52;20.70;99.90
26378;DHT22;14078;50.974;6.786;2023-07-31T12:07:19;20.70;99.90
26378;DHT22;14078;50.974;6.786;2023-07-31T12:09:52;20.60;99.90
26378;DHT22;14078;50.974;6.786;2023-07-31T12:12:40;20.50;99.90
26378;DHT22;14078;50.974;6.786;2023-07-31T12:15:13;20.60;99.90
26378;DHT22;14078;50.974;6.786;2023-07-31T12:17:40;20.50;99.90
26378;DHT22;14078;50.974;6.786;2023-07-31T12:20:07;20.40;99.90
26378;DHT22;14078;50.974;6.786;2023-07-31T12:22:34;20.50;99.90
26378;DHT22;14078;50.974;6.786;2023-07-31T12:25:01;20.40;99.90
26378;DHT22;14078;50.974;6.786;2023-07-31T12:27:32;20.40;99.90
26378;DHT22;14078;50.974;6.786;2023-07-31T12:30:00;20.40;99.90
26378;DHT22;14078;50.974;6.786;2023-07-31T12:32:26;20.50;99.90
26378;DHT22;14078;50.974;6.786;2023-07-31T12:34:59;20.50;99.90
26378;DHT22;14078;50.974;6.786;2023-07-31T12:37:26;20.50;99.90
26378;DHT22;14078;50.974;6.786;2023-07-31T12:39:53;20.60;99.90
26378;DHT22;14078;50.974;6.786;2023-07-31T12:42:19;20.70;99.90
26378;DHT22;14078;50.974;6.786;2023-07-31T12:44:46;20.80;99.90
26378;DHT22;14078;50.974;6.786;2023-07-31T12:47:14;20.80;99.90
26378;DHT22;14078;50.974;6.786;2023-07-31T12:49:41;20.70;99.90
26378;DHT22;14078;50.974;6.786;2023-07-31T12:52:07;20.70;99.90
26378;DHT22;14078;50.974;6.786;2023-07-31T12:54:34;20.70;99.90
26378;DHT22;14078;50.974;6.786;2023-07-31T12:57:00;20.80;99.90
26378;DHT22;14078;50.974;6.786;2023-07-31T12:59:27;20.90;99.90
26378;DHT22;14078;50.974;6.786;2023-07-31T13:01:53;21.00;99.90
26378;DHT22;14078;50.974;6.786;2023-07-31T13:04:21;21.10;99.90
26378;DHT22;14078;50.974;6.786;2023-07-31T13:06:48;21.00;99.90
26378;DHT22;14078;50.974;6.786;2023-07-31T13:09:15;21.00;99.90
26378;DHT22;14078;50.974;6.786;2023-07-31T13:11:42;20.90;99.90
26378;DHT22;14078;50.974;6.786;2023-07-31T13:14:09;20.90;99.90
26378;DHT22;14078;50.974;6.786;2023-07-31T13:16:36;20.80;99.90
26378;DHT22;14078;50.974;6.786;2023-07-31T13:19:02;20.80;99.90
26378;DHT22;14078;50.974;6.786;2023-07-31T13:21:30;20.70;99.90
26378;DHT22;14078;50.974;6.786;2023-07-31T13:23:57;20.70;99.90
26378;DHT22;14078;50.974;6.786;2023-07-31T13:26:26;20.80;99.90
26378;DHT22;14078;50.974;6.786;2023-07-31T13:28:52;20.90;99.90
26378;DHT22;14078;50.974;6.786;2023-07-31T13:31:19;21.00;99.90
26378;DHT22;14078;50.974;6.786;2023-07-31T13:33:45;21.20;99.90
26378;DHT22;14078;50.974;6.786;2023-07-31T13:36:12;21.20;99.90
26378;DHT22;14078;50.974;6.786;2023-07-31T13:38:40;21.20;99.90
26378;DHT22;14078;50.974;6.786;2023-07-31T13:41:07;21.40;99.90
26378;DHT22;14078;50.974;6.786;2023-07-31T13:43:33;21.50;95.40
26378;DHT22;14078;50.974;6.786;2023-07-31T13:46:00;21.60;99.90
26378;DHT22;14078;50.974;6.786;2023-07-31T13:48:31;21.80;99.90
26378;DHT22;14078;50.974;6.786;2023-07-31T13:50:58;22.10;90.50
26378;DHT22;14078;50.974;6.786;2023-07-31T13:53:24;22.30;76.30
26378;DHT22;14078;50.974;6.786;2023-07-31T13:55:52;22.50;48.40
26378;DHT22;14078;50.974;6.786;2023-07-31T13:58:20;22.80;1.00
26378;DHT22;14078;50.974;6.786;2023-07-31T14:00:46;23.10;99.90
26378;DHT22;14078;50.974;6.786;2023-07-31T14:03:13;23.20;40.80
26378;DHT22;14078;50.974;6.786;2023-07-31T14:05:39;23.20;1.00
26378;DHT22;14078;50.974;6.786;2023-07-31T14:08:06;23.10;1.00
26378;DHT22;14078;50.974;6.786;2023-07-31T14:10:32;22.80;99.90
26378;DHT22;14078;50.974;6.786;2023-07-31T14:13:00;22.70;1.00
26378;DHT22;14078;50.974;6.786;2023-07-31T14:15:27;22.40;99.90
26378;DHT22;14078;50.974;6.786;2023-07-31T14:17:53;22.30;99.20
26378;DHT22;14078;50.974;6.786;2023-07-31T14:20:20;22.10;31.40
26378;DHT22;14078;50.974;6.786;2023-07-31T14:22:46;21.80;99.90
26378;DHT22;14078;50.974;6.786;2023-07-31T14:25:13;21.60;99.90
26378;DHT22;14078;50.974;6.786;2023-07-31T14:27:39;21.50;99.90
26378;DHT22;14078;50.974;6.786;2023-07-31T14:30:09;21.40;1.00
26378;DHT22;14078;50.974;6.786;2023-07-31T14:32:35;21.30;1.00
26378;DHT22;14078;50.974;6.786;2023-07-31T14:35:02;21.30;1.00
26378;DHT22;14078;50.974;6.786;2023-07-31T14:37:36;21.20;1.00
26378;DHT22;14078;50.974;6.786;2023-07-31T14:40:03;21.20;1.00
26378;DHT22;14078;50.974;6.786;2023-07-31T14:42:29;21.30;1.00
26378;DHT22;14078;50.974;6.786;2023-07-31T14:44:56;21.40;1.00
26378;DHT22;14078;50.974;6.786;2023-07-31T14:47:24;21.50;99.90
26378;DHT22;14078;50.974;6.786;2023-07-31T14:49:50;21.60;1.00
26378;DHT22;14078;50.974;6.786;2023-07-31T14:52:17;21.60;1.00
26378;DHT22;14078;50.974;6.786;2023-07-31T14:54:43;21.50;99.90
26378;DHT22;14078;50.974;6.786;2023-07-31T14:57:10;21.50;99.90
26378;DHT22;14078;50.974;6.786;2023-07-31T14:59:36;21.50;1.00
26378;DHT22;14078;50.974;6.786;2023-07-31T15:02:03;21.50;1.00
26378;DHT22;14078;50.974;6.786;2023-07-31T15:04:31;21.40;1.00
26378;DHT22;14078;50.974;6.786;2023-07-31T15:06:57;21.30;99.90
26378;DHT22;14078;50.974;6.786;2023-07-31T15:09:24;21.20;1.00
26378;DHT22;14078;50.974;6.786;2023-07-31T15:11:50;21.10;99.90
26378;DHT22;14078;50.974;6.786;2023-07-31T15:14:17;21.00;99.90
26378;DHT22;14078;50.974;6.786;2023-07-31T15:16:44;21.00;1.00
26378;DHT22;14078;50.974;6.786;2023-07-31T15:19:10;21.20;99.90
26378;DHT22;14078;50.974;6.786;2023-07-31T15:21:38;21.00;99.90
26378;DHT22;14078;50.974;6.786;2023-07-31T15:24:05;21.00;37.30
26378;DHT22;14078;50.974;6.786;2023-07-31T15:26:31;21.00;99.90
26378;DHT22;14078;50.974;6.786;2023-07-31T15:29:00;20.90;99.90
26378;DHT22;14078;50.974;6.786;2023-07-31T15:31:27;20.80;1.00